sensor_id;sensor_type;location;lat;lon;timestamp;P1;durP1;ratioP1;P2;durP2;ratioP2
16593;SDS011;8410;52.532;13.336;2024-01-16T00:01:18;2.40;;;1.80;;
16593;SDS011;8410;52.532;13.336;2024-01-16T00:03:47;6.37;;;2.47;;
16593;SDS011;8410;52.532;13.336;2024-01-16T00:06:15;4.83;;;2.43;;
16593;SDS011;8410;52.532;13.336;2024-01-16T00:08:42;6.67;;;2.33;;
16593;SDS011;8410;52.532;13.336;2024-01-16T00:11:10;6.03;;;2.17;;
16593;SDS011;8410;52.532;13.336;2024-01-16T00:13:38;7.47;;;2.00;;
16593;SDS011;8410;52.532;13.336;2024-01-16T00:16:05;4.13;;;2.10;;
16593;SDS011;8410;52.532;13.336;2024-01-16T00:18:33;5.17;;;2.20;;
16593;SDS011;8410;52.532;13.336;2024-01-16T00:21:03;3.13;;;2.00;;
16593;SDS011;8410;52.532;13.336;2024-01-16T00:23:31;4.23;;;2.80;;
16593;SDS011;8410;52.532;13.336;2024-01-16T00:25:59;4.87;;;2.17;;
16593;SDS011;8410;52.532;13.336;2024-01-16T00:28:27;3.47;;;2.00;;
16593;SDS011;8410;52.532;13.336;2024-01-16T00:30:54;6.37;;;2.70;;
16593;SDS011;8410;52.532;13.336;2024-01-16T00:33:22;2.90;;;1.73;;
16593;SDS011;8410;52.532;13.336;2024-01-16T00:35:49;2.70;;;1.80;;
16593;SDS011;8410;52.532;13.336;2024-01-16T00:38:18;3.03;;;1.87;;
16593;SDS011;8410;52.532;13.336;2024-01-16T00:40:46;6.53;;;2.13;;
16593;SDS011;8410;52.532;13.336;2024-01-16T00:43:14;4.00;;;1.80;;
16593;SDS011;8410;52.532;13.336;2024-01-16T00:45:41;4.97;;;1.90;;
16593;SDS011;8410;52.532;13.336;2024-01-16T00:48:09;5.50;;;2.17;;
16593;SDS011;8410;52.532;13.336;2024-01-16T00:50:40;4.70;;;2.30;;
16593;SDS011;8410;52.532;13.336;2024-01-16T00:53:08;5.40;;;2.20;;
16593;SDS011;8410;52.532;13.336;2024-01-16T00:55:37;4.87;;;2.23;;
16593;SDS011;8410;52.532;13.336;2024-01-16T00:58:05;5.70;;;2.47;;
16593;SDS011;8410;52.532;13.336;2024-01-16T01:00:32;3.80;;;1.53;;
16593;SDS011;8410;52.532;13.336;2024-01-16T01:03:01;3.17;;;1.03;;
16593;SDS011;8410;52.532;13.336;2024-01-16T01:05:30;3.53;;;1.63;;
16593;SDS011;8410;52.532;13.336;2024-01-16T01:07:57;2.47;;;1.40;;
16593;SDS011;8410;52.532;13.336;2024-01-16T01:10:25;2.63;;;1.30;;
16593;SDS011;8410;52.532;13.336;2024-01-16T01:12:54;1.80;;;1.37;;
16593;SDS011;8410;52.532;13.336;2024-01-16T01:15:22;2.90;;;1.37;;
16593;SDS011;8410;52.532;13.336;2024-01-16T01:17:49;2.80;;;1.40;;
16593;SDS011;8410;52.532;13.336;2024-01-16T01:20:18;3.67;;;1.23;;
16593;SDS011;8410;52.532;13.336;2024-01-16T01:22:46;5.57;;;1.60;;
16593;SDS011;8410;52.532;13.336;2024-01-16T01:25:14;3.70;;;1.43;;
16593;SDS011;8410;52.532;13.336;2024-01-16T01:27:42;1.90;;;1.40;;
16593;SDS011;8410;52.532;13.336;2024-01-16T01:30:11;3.03;;;1.60;;
16593;SDS011;8410;52.532;13.336;2024-01-16T01:32:39;3.70;;;1.53;;
16593;SDS011;8410;52.532;13.336;2024-01-16T01:35:07;3.10;;;1.20;;
16593;SDS011;8410;52.532;13.336;2024-01-16T01:37:35;5.37;;;1.57;;
16593;SDS011;8410;52.532;13.336;2024-01-16T01:40:02;2.07;;;1.10;;
16593;SDS011;8410;52.532;13.336;2024-01-16T01:42:30;2.93;;;1.30;;
16593;SDS011;8410;52.532;13.336;2024-01-16T01:44:58;2.10;;;1.40;;
16593;SDS011;8410;52.532;13.336;2024-01-16T01:47:27;3.70;;;1.40;;
16593;SDS011;8410;52.532;13.336;2024-01-16T01:49:54;3.30;;;1.53;;
16593;SDS011;8410;52.532;13.336;2024-01-16T01:52:22;2.73;;;1.50;;
16593;SDS011;8410;52.532;13.336;2024-01-16T01:54:50;3.23;;;1.60;;
16593;SDS011;8410;52.532;13.336;2024-01-16T01:57:18;5.83;;;1.73;;
16593;SDS011;8410;52.532;13.336;2024-01-16T01:59:46;2.10;;;1.20;;
16593;SDS011;8410;52.532;13.336;2024-01-16T02:02:14;2.30;;;1.50;;
16593;SDS011;8410;52.532;13.336;2024-01-16T02:04:43;2.83;;;1.40;;
16593;SDS011;8410;52.532;13.336;2024-01-16T02:07:12;2.33;;;1.50;;
16593;SDS011;8410;52.532;13.336;2024-01-16T02:09:41;2.90;;;1.70;;
16593;SDS011;8410;52.532;13.336;2024-01-16T02:12:09;3.70;;;1.63;;
16593;SDS011;8410;52.532;13.336;2024-01-16T02:14:37;3.97;;;1.70;;
16593;SDS011;8410;52.532;13.336;2024-01-16T02:17:04;1.80;;;1.43;;
16593;SDS011;8410;52.532;13.336;2024-01-16T02:19:32;2.13;;;1.43;;
16593;SDS011;8410;52.532;13.336;2024-01-16T02:22:01;2.57;;;1.40;;
16593;SDS011;8410;52.532;13.336;2024-01-16T02:24:37;3.20;;;1.40;;
16593;SDS011;8410;52.532;13.336;2024-01-16T02:27:05;3.93;;;1.60;;
16593;SDS011;8410;52.532;13.336;2024-01-16T02:29:33;2.90;;;1.70;;
16593;SDS011;8410;52.532;13.336;2024-01-16T02:32:01;4.20;;;1.80;;
16593;SDS011;8410;52.532;13.336;2024-01-16T02:34:29;4.03;;;1.60;;
16593;SDS011;8410;52.532;13.336;2024-01-16T02:36:57;4.97;;;1.77;;
16593;SDS011;8410;52.532;13.336;2024-01-16T02:39:25;3.47;;;1.50;;
16593;SDS011;8410;52.532;13.336;2024-01-16T02:41:53;5.07;;;1.70;;
16593;SDS011;8410;52.532;13.336;2024-01-16T02:44:21;1.63;;;1.47;;
16593;SDS011;8410;52.532;13.336;2024-01-16T02:46:49;3.83;;;1.60;;
16593;SDS011;8410;52.532;13.336;2024-01-16T02:49:16;3.37;;;1.60;;
16593;SDS011;8410;52.532;13.336;2024-01-16T02:51:44;6.07;;;2.00;;
16593;SDS011;8410;52.532;13.336;2024-01-16T02:54:11;2.57;;;1.40;;
16593;SDS011;8410;52.532;13.336;2024-01-16T02:56:39;2.87;;;1.93;;
16593;SDS011;8410;52.532;13.336;2024-01-16T02:59:08;4.77;;;2.00;;
16593;SDS011;8410;52.532;13.336;2024-01-16T03:01:36;4.20;;;1.83;;
16593;SDS011;8410;52.532;13.336;2024-01-16T03:04:03;3.47;;;2.00;;
16593;SDS011;8410;52.532;13.336;2024-01-16T03:06:31;6.17;;;3.93;;
16593;SDS011;8410;52.532;13.336;2024-01-16T03:08:59;4.50;;;1.93;;
16593;SDS011;8410;52.532;13.336;2024-01-16T03:11:26;8.17;;;3.27;;
16593;SDS011;8410;52.532;13.336;2024-01-16T03:13:57;4.40;;;2.30;;
16593;SDS011;8410;52.532;13.336;2024-01-16T03:16:26;6.47;;;2.77;;
16593;SDS011;8410;52.532;13.336;2024-01-16T03:18:53;6.53;;;3.57;;
16593;SDS011;8410;52.532;13.336;2024-01-16T03:21:21;2.70;;;2.00;;
16593;SDS011;8410;52.532;13.336;2024-01-16T03:23:49;5.67;;;2.30;;
16593;SDS011;8410;52.532;13.336;2024-01-16T03:26:17;6.27;;;1.97;;
16593;SDS011;8410;52.532;13.336;2024-01-16T03:28:45;5.43;;;2.47;;
16593;SDS011;8410;52.532;13.336;2024-01-16T03:31:12;4.17;;;2.27;;
16593;SDS011;8410;52.532;13.336;2024-01-16T03:33:42;5.03;;;2.10;;
16593;SDS011;8410;52.532;13.336;2024-01-16T03:36:10;3.10;;;2.00;;
16593;SDS011;8410;52.532;13.336;2024-01-16T03:38:39;2.20;;;1.90;;
16593;SDS011;8410;52.532;13.336;2024-01-16T03:41:07;3.27;;;2.13;;
16593;SDS011;8410;52.532;13.336;2024-01-16T03:43:34;3.03;;;2.13;;
16593;SDS011;8410;52.532;13.336;2024-01-16T03:46:02;4.53;;;2.30;;
16593;SDS011;8410;52.532;13.336;2024-01-16T03:48:30;3.33;;;2.50;;
16593;SDS011;8410;52.532;13.336;2024-01-16T03:50:59;3.67;;;2.13;;
16593;SDS011;8410;52.532;13.336;2024-01-16T03:53:26;4.40;;;2.30;;
16593;SDS011;8410;52.532;13.336;2024-01-16T03:55:54;5.83;;;2.93;;
16593;SDS011;8410;52.532;13.336;2024-01-16T03:58:21;2.80;;;2.20;;
16593;SDS011;8410;52.532;13.336;2024-01-16T04:00:49;7.00;;;3.43;;
16593;SDS011;8410;52.532;13.336;2024-01-16T04:03:19;6.10;;;2.27;;
16593;SDS011;8410;52.532;13.336;2024-01-16T04:05:47;6.13;;;2.67;;
16593;SDS011;8410;52.532;13.336;2024-01-16T04:08:16;3.07;;;2.50;;
16593;SDS011;8410;52.532;13.336;2024-01-16T04:10:44;4.30;;;2.43;;
16593;SDS011;8410;52.532;13.336;2024-01-16T04:13:12;5.50;;;2.73;;
16593;SDS011;8410;52.532;13.336;2024-01-16T04:15:39;3.53;;;3.13;;
16593;SDS011;8410;52.532;13.336;2024-01-16T04:18:07;3.70;;;2.50;;
16593;SDS011;8410;52.532;13.336;2024-01-16T04:20:35;5.53;;;2.97;;
16593;SDS011;8410;52.532;13.336;2024-01-16T04:23:03;3.67;;;2.50;;
16593;SDS011;8410;52.532;13.336;2024-01-16T04:25:32;3.33;;;2.30;;
16593;SDS011;8410;52.532;13.336;2024-01-16T04:28:00;4.60;;;2.40;;
16593;SDS011;8410;52.532;13.336;2024-01-16T04:30:28;6.60;;;3.00;;
16593;SDS011;8410;52.532;13.336;2024-01-16T04:32:56;2.97;;;2.03;;
16593;SDS011;8410;52.532;13.336;2024-01-16T04:35:24;3.87;;;2.37;;
16593;SDS011;8410;52.532;13.336;2024-01-16T04:37:51;2.47;;;2.27;;
16593;SDS011;8410;52.532;13.336;2024-01-16T04:40:19;5.10;;;2.50;;
16593;SDS011;8410;52.532;13.336;2024-01-16T04:42:49;6.63;;;2.87;;
16593;SDS011;8410;52.532;13.336;2024-01-16T04:45:17;3.20;;;2.30;;
16593;SDS011;8410;52.532;13.336;2024-01-16T04:47:44;3.20;;;2.50;;
16593;SDS011;8410;52.532;13.336;2024-01-16T04:50:12;3.77;;;2.77;;
16593;SDS011;8410;52.532;13.336;2024-01-16T04:52:39;7.03;;;2.30;;
16593;SDS011;8410;52.532;13.336;2024-01-16T04:55:07;3.97;;;2.80;;
16593;SDS011;8410;52.532;13.336;2024-01-16T04:57:35;4.83;;;2.67;;
16593;SDS011;8410;52.532;13.336;2024-01-16T05:00:04;3.57;;;2.47;;
16593;SDS011;8410;52.532;13.336;2024-01-16T05:02:33;3.00;;;2.67;;
16593;SDS011;8410;52.532;13.336;2024-01-16T05:05:01;5.33;;;3.00;;
16593;SDS011;8410;52.532;13.336;2024-01-16T05:07:29;6.73;;;2.80;;
16593;SDS011;8410;52.532;13.336;2024-01-16T05:09:56;5.10;;;2.77;;
16593;SDS011;8410;52.532;13.336;2024-01-16T05:12:24;4.70;;;3.30;;
16593;SDS011;8410;52.532;13.336;2024-01-16T05:14:51;3.53;;;3.00;;
16593;SDS011;8410;52.532;13.336;2024-01-16T05:17:20;7.90;;;3.17;;
16593;SDS011;8410;52.532;13.336;2024-01-16T05:19:48;10.90;;;3.80;;
16593;SDS011;8410;52.532;13.336;2024-01-16T05:22:16;6.07;;;3.30;;
16593;SDS011;8410;52.532;13.336;2024-01-16T05:24:43;3.43;;;3.00;;
16593;SDS011;8410;52.532;13.336;2024-01-16T05:27:11;5.10;;;3.80;;
16593;SDS011;8410;52.532;13.336;2024-01-16T05:29:40;7.23;;;3.90;;
16593;SDS011;8410;52.532;13.336;2024-01-16T05:32:10;7.67;;;3.97;;
16593;SDS011;8410;52.532;13.336;2024-01-16T05:34:39;10.63;;;4.23;;
16593;SDS011;8410;52.532;13.336;2024-01-16T05:37:07;8.73;;;3.93;;
16593;SDS011;8410;52.532;13.336;2024-01-16T05:39:34;7.47;;;3.63;;
16593;SDS011;8410;52.532;13.336;2024-01-16T05:42:03;5.70;;;3.23;;
16593;SDS011;8410;52.532;13.336;2024-01-16T05:44:31;7.73;;;3.57;;
16593;SDS011;8410;52.532;13.336;2024-01-16T05:46:59;7.33;;;3.37;;
16593;SDS011;8410;52.532;13.336;2024-01-16T05:49:26;3.80;;;2.93;;
16593;SDS011;8410;52.532;13.336;2024-01-16T05:51:55;6.00;;;3.63;;
16593;SDS011;8410;52.532;13.336;2024-01-16T05:54:23;4.17;;;3.10;;
16593;SDS011;8410;52.532;13.336;2024-01-16T05:56:49;5.83;;;3.70;;
16593;SDS011;8410;52.532;13.336;2024-01-16T05:59:17;4.93;;;3.43;;
16593;SDS011;8410;52.532;13.336;2024-01-16T06:01:45;4.47;;;3.37;;
16593;SDS011;8410;52.532;13.336;2024-01-16T06:04:12;4.20;;;3.57;;
16593;SDS011;8410;52.532;13.336;2024-01-16T06:06:41;7.50;;;4.03;;
16593;SDS011;8410;52.532;13.336;2024-01-16T06:09:13;6.30;;;4.03;;
16593;SDS011;8410;52.532;13.336;2024-01-16T06:11:41;4.97;;;3.70;;
16593;SDS011;8410;52.532;13.336;2024-01-16T06:14:09;6.77;;;5.20;;
16593;SDS011;8410;52.532;13.336;2024-01-16T06:16:38;4.67;;;4.27;;
16593;SDS011;8410;52.532;13.336;2024-01-16T06:19:06;5.47;;;3.30;;
16593;SDS011;8410;52.532;13.336;2024-01-16T06:21:34;8.00;;;3.90;;
16593;SDS011;8410;52.532;13.336;2024-01-16T06:24:02;4.77;;;4.07;;
16593;SDS011;8410;52.532;13.336;2024-01-16T06:26:31;9.73;;;4.70;;
16593;SDS011;8410;52.532;13.336;2024-01-16T06:29:00;7.50;;;4.13;;
16593;SDS011;8410;52.532;13.336;2024-01-16T06:31:27;8.37;;;4.40;;
16593;SDS011;8410;52.532;13.336;2024-01-16T06:33:55;7.10;;;4.53;;
16593;SDS011;8410;52.532;13.336;2024-01-16T06:36:22;6.50;;;4.83;;
16593;SDS011;8410;52.532;13.336;2024-01-16T06:38:50;8.67;;;4.37;;
16593;SDS011;8410;52.532;13.336;2024-01-16T06:41:17;6.77;;;5.60;;
16593;SDS011;8410;52.532;13.336;2024-01-16T06:43:46;7.90;;;5.27;;
16593;SDS011;8410;52.532;13.336;2024-01-16T06:46:14;15.17;;;9.63;;
16593;SDS011;8410;52.532;13.336;2024-01-16T06:48:42;6.87;;;5.57;;
16593;SDS011;8410;52.532;13.336;2024-01-16T06:51:09;9.53;;;5.77;;
16593;SDS011;8410;52.532;13.336;2024-01-16T06:53:40;16.67;;;9.70;;
16593;SDS011;8410;52.532;13.336;2024-01-16T06:56:07;7.50;;;5.63;;
16593;SDS011;8410;52.532;13.336;2024-01-16T06:58:35;7.47;;;4.87;;
16593;SDS011;8410;52.532;13.336;2024-01-16T07:01:04;5.70;;;4.23;;
16593;SDS011;8410;52.532;13.336;2024-01-16T07:03:32;6.67;;;4.93;;
16593;SDS011;8410;52.532;13.336;2024-01-16T07:06:00;7.17;;;4.90;;
16593;SDS011;8410;52.532;13.336;2024-01-16T07:08:27;8.97;;;5.10;;
16593;SDS011;8410;52.532;13.336;2024-01-16T07:10:55;5.60;;;4.17;;
16593;SDS011;8410;52.532;13.336;2024-01-16T07:13:22;9.27;;;5.83;;
16593;SDS011;8410;52.532;13.336;2024-01-16T07:15:50;16.10;;;8.37;;
16593;SDS011;8410;52.532;13.336;2024-01-16T07:18:19;23.40;;;11.50;;
16593;SDS011;8410;52.532;13.336;2024-01-16T07:20:47;14.77;;;10.20;;
16593;SDS011;8410;52.532;13.336;2024-01-16T07:23:14;9.40;;;6.60;;
16593;SDS011;8410;52.532;13.336;2024-01-16T07:25:42;9.27;;;5.40;;
16593;SDS011;8410;52.532;13.336;2024-01-16T07:28:09;11.37;;;4.87;;
16593;SDS011;8410;52.532;13.336;2024-01-16T07:30:37;9.80;;;5.03;;
16593;SDS011;8410;52.532;13.336;2024-01-16T07:33:04;6.70;;;5.10;;
16593;SDS011;8410;52.532;13.336;2024-01-16T07:35:33;7.67;;;4.93;;
16593;SDS011;8410;52.532;13.336;2024-01-16T07:38:01;16.40;;;6.17;;
16593;SDS011;8410;52.532;13.336;2024-01-16T07:40:31;10.20;;;5.63;;
16593;SDS011;8410;52.532;13.336;2024-01-16T07:42:58;8.87;;;5.97;;
16593;SDS011;8410;52.532;13.336;2024-01-16T07:45:26;8.27;;;6.43;;
16593;SDS011;8410;52.532;13.336;2024-01-16T07:47:53;8.43;;;6.60;;
16593;SDS011;8410;52.532;13.336;2024-01-16T07:50:21;10.13;;;5.93;;
16593;SDS011;8410;52.532;13.336;2024-01-16T07:52:50;8.70;;;5.67;;
16593;SDS011;8410;52.532;13.336;2024-01-16T07:55:17;6.97;;;5.57;;
16593;SDS011;8410;52.532;13.336;2024-01-16T07:57:49;15.03;;;7.10;;
16593;SDS011;8410;52.532;13.336;2024-01-16T08:00:17;17.80;;;7.30;;
16593;SDS011;8410;52.532;13.336;2024-01-16T08:02:45;12.50;;;6.07;;
16593;SDS011;8410;52.532;13.336;2024-01-16T08:05:13;7.93;;;7.00;;
16593;SDS011;8410;52.532;13.336;2024-01-16T08:07:42;7.10;;;5.77;;
16593;SDS011;8410;52.532;13.336;2024-01-16T08:10:11;5.67;;;5.00;;
16593;SDS011;8410;52.532;13.336;2024-01-16T08:12:42;9.00;;;5.60;;
16593;SDS011;8410;52.532;13.336;2024-01-16T08:15:09;9.33;;;4.63;;
16593;SDS011;8410;52.532;13.336;2024-01-16T08:17:37;8.53;;;5.20;;
16593;SDS011;8410;52.532;13.336;2024-01-16T08:20:06;7.70;;;5.13;;
16593;SDS011;8410;52.532;13.336;2024-01-16T08:22:36;10.87;;;4.50;;
16593;SDS011;8410;52.532;13.336;2024-01-16T08:25:04;13.07;;;6.50;;
16593;SDS011;8410;52.532;13.336;2024-01-16T08:27:33;6.10;;;3.97;;
16593;SDS011;8410;52.532;13.336;2024-01-16T08:30:04;6.73;;;3.90;;
16593;SDS011;8410;52.532;13.336;2024-01-16T08:32:33;5.93;;;4.10;;
16593;SDS011;8410;52.532;13.336;2024-01-16T08:35:01;5.47;;;4.27;;
16593;SDS011;8410;52.532;13.336;2024-01-16T08:37:29;6.67;;;4.60;;
16593;SDS011;8410;52.532;13.336;2024-01-16T08:39:56;7.53;;;4.30;;
16593;SDS011;8410;52.532;13.336;2024-01-16T08:42:24;9.87;;;5.27;;
16593;SDS011;8410;52.532;13.336;2024-01-16T08:44:53;5.73;;;4.53;;
16593;SDS011;8410;52.532;13.336;2024-01-16T08:47:20;8.73;;;4.73;;
16593;SDS011;8410;52.532;13.336;2024-01-16T08:49:48;7.20;;;4.70;;
16593;SDS011;8410;52.532;13.336;2024-01-16T08:52:16;6.47;;;4.90;;
16593;SDS011;8410;52.532;13.336;2024-01-16T08:54:43;7.70;;;5.40;;
16593;SDS011;8410;52.532;13.336;2024-01-16T08:57:11;8.83;;;4.83;;
16593;SDS011;8410;52.532;13.336;2024-01-16T08:59:43;8.30;;;5.27;;
16593;SDS011;8410;52.532;13.336;2024-01-16T09:02:12;6.53;;;4.83;;
16593;SDS011;8410;52.532;13.336;2024-01-16T09:04:39;7.47;;;4.80;;
16593;SDS011;8410;52.532;13.336;2024-01-16T09:07:07;6.83;;;5.23;;
16593;SDS011;8410;52.532;13.336;2024-01-16T09:09:36;8.17;;;6.20;;
16593;SDS011;8410;52.532;13.336;2024-01-16T09:12:03;7.50;;;4.57;;
16593;SDS011;8410;52.532;13.336;2024-01-16T09:14:31;9.70;;;5.70;;
16593;SDS011;8410;52.532;13.336;2024-01-16T09:16:59;6.97;;;5.43;;
16593;SDS011;8410;52.532;13.336;2024-01-16T09:19:28;8.17;;;5.73;;
16593;SDS011;8410;52.532;13.336;2024-01-16T09:21:56;10.77;;;5.43;;
16593;SDS011;8410;52.532;13.336;2024-01-16T09:24:24;6.30;;;4.53;;
16593;SDS011;8410;52.532;13.336;2024-01-16T09:26:51;7.10;;;5.00;;
16593;SDS011;8410;52.532;13.336;2024-01-16T09:29:19;8.10;;;5.40;;
16593;SDS011;8410;52.532;13.336;2024-01-16T09:31:48;7.27;;;5.93;;
16593;SDS011;8410;52.532;13.336;2024-01-16T09:34:15;6.53;;;5.57;;
16593;SDS011;8410;52.532;13.336;2024-01-16T09:36:46;8.37;;;6.30;;
16593;SDS011;8410;52.532;13.336;2024-01-16T09:39:13;9.20;;;5.50;;
16593;SDS011;8410;52.532;13.336;2024-01-16T09:41:44;6.77;;;4.93;;
16593;SDS011;8410;52.532;13.336;2024-01-16T09:44:13;8.60;;;5.70;;
16593;SDS011;8410;52.532;13.336;2024-01-16T09:46:40;6.13;;;5.20;;
16593;SDS011;8410;52.532;13.336;2024-01-16T09:49:12;9.83;;;5.73;;
16593;SDS011;8410;52.532;13.336;2024-01-16T09:51:42;9.13;;;5.73;;
16593;SDS011;8410;52.532;13.336;2024-01-16T09:54:11;7.83;;;5.63;;
16593;SDS011;8410;52.532;13.336;2024-01-16T09:56:39;7.33;;;5.57;;
16593;SDS011;8410;52.532;13.336;2024-01-16T09:59:10;8.47;;;6.47;;
16593;SDS011;8410;52.532;13.336;2024-01-16T10:01:42;8.63;;;6.27;;
16593;SDS011;8410;52.532;13.336;2024-01-16T10:04:11;11.90;;;6.30;;
16593;SDS011;8410;52.532;13.336;2024-01-16T10:06:39;7.53;;;5.50;;
16593;SDS011;8410;52.532;13.336;2024-01-16T10:09:08;8.10;;;4.50;;
16593;SDS011;8410;52.532;13.336;2024-01-16T10:11:39;7.30;;;4.70;;
16593;SDS011;8410;52.532;13.336;2024-01-16T10:14:07;6.77;;;4.63;;
16593;SDS011;8410;52.532;13.336;2024-01-16T10:19:22;7.07;;;4.43;;
16593;SDS011;8410;52.532;13.336;2024-01-16T10:22:08;7.50;;;4.70;;
16593;SDS011;8410;52.532;13.336;2024-01-16T10:24:36;5.67;;;4.07;;
16593;SDS011;8410;52.532;13.336;2024-01-16T10:27:05;5.30;;;4.10;;
16593;SDS011;8410;52.532;13.336;2024-01-16T10:29:33;5.67;;;4.43;;
16593;SDS011;8410;52.532;13.336;2024-01-16T10:32:15;5.63;;;4.10;;
16593;SDS011;8410;52.532;13.336;2024-01-16T10:35:01;5.13;;;3.67;;
16593;SDS011;8410;52.532;13.336;2024-01-16T10:37:30;6.60;;;3.43;;
16593;SDS011;8410;52.532;13.336;2024-01-16T10:39:58;4.87;;;3.50;;
16593;SDS011;8410;52.532;13.336;2024-01-16T10:42:27;4.90;;;3.63;;
16593;SDS011;8410;52.532;13.336;2024-01-16T10:44:55;5.43;;;3.37;;
16593;SDS011;8410;52.532;13.336;2024-01-16T10:47:22;6.53;;;3.57;;
16593;SDS011;8410;52.532;13.336;2024-01-16T10:49:50;5.83;;;3.40;;
16593;SDS011;8410;52.532;13.336;2024-01-16T10:52:18;7.33;;;3.40;;
16593;SDS011;8410;52.532;13.336;2024-01-16T10:54:47;3.83;;;3.13;;
16593;SDS011;8410;52.532;13.336;2024-01-16T10:57:17;4.53;;;3.30;;
16593;SDS011;8410;52.532;13.336;2024-01-16T10:59:48;4.43;;;3.17;;
16593;SDS011;8410;52.532;13.336;2024-01-16T11:02:25;4.73;;;3.37;;
16593;SDS011;8410;52.532;13.336;2024-01-16T11:05:00;3.87;;;3.57;;
16593;SDS011;8410;52.532;13.336;2024-01-16T11:07:30;6.47;;;3.40;;
16593;SDS011;8410;52.532;13.336;2024-01-16T11:09:57;6.47;;;3.37;;
16593;SDS011;8410;52.532;13.336;2024-01-16T11:12:25;4.23;;;3.10;;
16593;SDS011;8410;52.532;13.336;2024-01-16T11:14:55;6.13;;;3.43;;
16593;SDS011;8410;52.532;13.336;2024-01-16T11:17:28;7.57;;;2.93;;
16593;SDS011;8410;52.532;13.336;2024-01-16T11:19:58;5.77;;;3.00;;
16593;SDS011;8410;52.532;13.336;2024-01-16T11:22:46;4.13;;;2.87;;
16593;SDS011;8410;52.532;13.336;2024-01-16T11:25:16;6.17;;;2.83;;
16593;SDS011;8410;52.532;13.336;2024-01-16T11:27:45;6.87;;;3.27;;
16593;SDS011;8410;52.532;13.336;2024-01-16T11:30:28;9.00;;;3.47;;
16593;SDS011;8410;52.532;13.336;2024-01-16T11:32:57;7.57;;;3.53;;
16593;SDS011;8410;52.532;13.336;2024-01-16T11:35:31;7.80;;;4.10;;
16593;SDS011;8410;52.532;13.336;2024-01-16T11:38:03;5.83;;;3.50;;
16593;SDS011;8410;52.532;13.336;2024-01-16T11:40:32;7.23;;;4.30;;
16593;SDS011;8410;52.532;13.336;2024-01-16T11:43:34;7.60;;;4.00;;
16593;SDS011;8410;52.532;13.336;2024-01-16T11:46:05;7.83;;;4.20;;
16593;SDS011;8410;52.532;13.336;2024-01-16T11:48:33;5.20;;;3.70;;
16593;SDS011;8410;52.532;13.336;2024-01-16T11:51:21;7.27;;;4.43;;
16593;SDS011;8410;52.532;13.336;2024-01-16T11:53:50;7.10;;;4.53;;
16593;SDS011;8410;52.532;13.336;2024-01-16T11:56:25;6.90;;;4.23;;
16593;SDS011;8410;52.532;13.336;2024-01-16T11:59:18;5.57;;;3.90;;
16593;SDS011;8410;52.532;13.336;2024-01-16T12:02:10;9.90;;;4.93;;
16593;SDS011;8410;52.532;13.336;2024-01-16T12:04:41;9.50;;;4.70;;
16593;SDS011;8410;52.532;13.336;2024-01-16T12:07:09;10.90;;;5.40;;
16593;SDS011;8410;52.532;13.336;2024-01-16T12:09:37;7.27;;;5.13;;
16593;SDS011;8410;52.532;13.336;2024-01-16T12:12:05;9.47;;;5.37;;
16593;SDS011;8410;52.532;13.336;2024-01-16T12:14:33;8.33;;;5.37;;
16593;SDS011;8410;52.532;13.336;2024-01-16T12:17:08;9.77;;;5.30;;
16593;SDS011;8410;52.532;13.336;2024-01-16T12:19:38;10.50;;;5.87;;
16593;SDS011;8410;52.532;13.336;2024-01-16T12:22:08;10.47;;;6.03;;
16593;SDS011;8410;52.532;13.336;2024-01-16T12:24:37;13.47;;;5.63;;
16593;SDS011;8410;52.532;13.336;2024-01-16T12:27:04;9.57;;;5.43;;
16593;SDS011;8410;52.532;13.336;2024-01-16T12:29:34;11.77;;;5.30;;
16593;SDS011;8410;52.532;13.336;2024-01-16T12:32:06;11.80;;;6.00;;
16593;SDS011;8410;52.532;13.336;2024-01-16T12:34:42;10.80;;;5.60;;
16593;SDS011;8410;52.532;13.336;2024-01-16T12:37:11;9.77;;;6.63;;
16593;SDS011;8410;52.532;13.336;2024-01-16T12:39:39;7.30;;;5.13;;
16593;SDS011;8410;52.532;13.336;2024-01-16T12:42:08;9.20;;;4.73;;
16593;SDS011;8410;52.532;13.336;2024-01-16T12:44:36;10.50;;;4.87;;
16593;SDS011;8410;52.532;13.336;2024-01-16T12:47:04;9.43;;;4.70;;
16593;SDS011;8410;52.532;13.336;2024-01-16T12:49:32;13.33;;;5.10;;
16593;SDS011;8410;52.532;13.336;2024-01-16T12:52:20;8.77;;;4.70;;
16593;SDS011;8410;52.532;13.336;2024-01-16T12:54:58;8.40;;;4.63;;
16593;SDS011;8410;52.532;13.336;2024-01-16T12:57:26;11.73;;;4.80;;
16593;SDS011;8410;52.532;13.336;2024-01-16T12:59:54;11.77;;;4.93;;
16593;SDS011;8410;52.532;13.336;2024-01-16T13:02:24;8.93;;;4.17;;
16593;SDS011;8410;52.532;13.336;2024-01-16T13:04:56;7.80;;;3.87;;
16593;SDS011;8410;52.532;13.336;2024-01-16T13:07:26;6.17;;;3.90;;
16593;SDS011;8410;52.532;13.336;2024-01-16T13:10:09;8.50;;;3.70;;
16593;SDS011;8410;52.532;13.336;2024-01-16T13:12:42;9.43;;;3.63;;
16593;SDS011;8410;52.532;13.336;2024-01-16T13:15:09;9.07;;;3.80;;
16593;SDS011;8410;52.532;13.336;2024-01-16T13:17:37;7.53;;;4.30;;
16593;SDS011;8410;52.532;13.336;2024-01-16T13:20:06;7.43;;;3.73;;
16593;SDS011;8410;52.532;13.336;2024-01-16T13:22:38;7.00;;;4.33;;
16593;SDS011;8410;52.532;13.336;2024-01-16T13:25:12;11.43;;;4.47;;
16593;SDS011;8410;52.532;13.336;2024-01-16T13:27:41;9.97;;;4.17;;
16593;SDS011;8410;52.532;13.336;2024-01-16T13:30:08;9.03;;;3.60;;
16593;SDS011;8410;52.532;13.336;2024-01-16T13:32:37;7.03;;;3.73;;
16593;SDS011;8410;52.532;13.336;2024-01-16T13:35:05;5.83;;;3.60;;
16593;SDS011;8410;52.532;13.336;2024-01-16T13:37:35;12.07;;;3.97;;
16593;SDS011;8410;52.532;13.336;2024-01-16T13:40:06;7.80;;;3.37;;
16593;SDS011;8410;52.532;13.336;2024-01-16T13:42:38;10.53;;;3.50;;
16593;SDS011;8410;52.532;13.336;2024-01-16T13:45:06;9.80;;;3.30;;
16593;SDS011;8410;52.532;13.336;2024-01-16T13:47:34;6.33;;;3.27;;
16593;SDS011;8410;52.532;13.336;2024-01-16T13:50:06;7.53;;;3.80;;
16593;SDS011;8410;52.532;13.336;2024-01-16T13:52:34;6.07;;;3.57;;
16593;SDS011;8410;52.532;13.336;2024-01-16T13:55:02;5.30;;;3.10;;
16593;SDS011;8410;52.532;13.336;2024-01-16T13:57:33;6.83;;;3.70;;
16593;SDS011;8410;52.532;13.336;2024-01-16T14:00:02;7.93;;;4.00;;
16593;SDS011;8410;52.532;13.336;2024-01-16T14:02:31;5.67;;;3.10;;
16593;SDS011;8410;52.532;13.336;2024-01-16T14:04:58;8.47;;;2.93;;
16593;SDS011;8410;52.532;13.336;2024-01-16T14:07:26;6.80;;;4.27;;
16593;SDS011;8410;52.532;13.336;2024-01-16T14:09:53;6.30;;;3.77;;
16593;SDS011;8410;52.532;13.336;2024-01-16T14:12:21;9.63;;;3.93;;
16593;SDS011;8410;52.532;13.336;2024-01-16T14:14:50;8.90;;;3.33;;
16593;SDS011;8410;52.532;13.336;2024-01-16T14:17:18;5.63;;;3.43;;
16593;SDS011;8410;52.532;13.336;2024-01-16T14:19:45;11.97;;;3.30;;
16593;SDS011;8410;52.532;13.336;2024-01-16T14:22:13;8.30;;;3.60;;
16593;SDS011;8410;52.532;13.336;2024-01-16T14:24:40;13.80;;;8.27;;
16593;SDS011;8410;52.532;13.336;2024-01-16T14:27:08;8.93;;;3.90;;
16593;SDS011;8410;52.532;13.336;2024-01-16T14:29:37;5.80;;;3.40;;
16593;SDS011;8410;52.532;13.336;2024-01-16T14:32:07;6.53;;;3.50;;
16593;SDS011;8410;52.532;13.336;2024-01-16T14:34:36;6.17;;;3.60;;
16593;SDS011;8410;52.532;13.336;2024-01-16T14:37:04;6.00;;;3.30;;
16593;SDS011;8410;52.532;13.336;2024-01-16T14:39:31;7.80;;;3.67;;
16593;SDS011;8410;52.532;13.336;2024-01-16T14:42:01;10.57;;;3.57;;
16593;SDS011;8410;52.532;13.336;2024-01-16T14:44:29;10.33;;;3.83;;
16593;SDS011;8410;52.532;13.336;2024-01-16T14:46:56;7.67;;;3.53;;
16593;SDS011;8410;52.532;13.336;2024-01-16T14:49:26;8.93;;;4.33;;
16593;SDS011;8410;52.532;13.336;2024-01-16T14:51:58;5.37;;;3.37;;
16593;SDS011;8410;52.532;13.336;2024-01-16T14:54:25;7.07;;;3.87;;
16593;SDS011;8410;52.532;13.336;2024-01-16T14:56:53;8.10;;;3.73;;
16593;SDS011;8410;52.532;13.336;2024-01-16T14:59:21;7.60;;;3.73;;